createdAt,value
2022-11-24T00:01:30.928Z,98139.03
2022-11-24T00:04:03.665Z,98136.31
2022-11-24T00:06:35.355Z,98129.19
2022-11-24T00:09:07.090Z,98136.06
2022-11-24T00:11:37.626Z,98138.06
2022-11-24T00:14:06.837Z,98142.22
2022-11-24T00:16:37.476Z,98134.78
2022-11-24T00:19:09.772Z,98135.47
2022-11-24T00:21:38.888Z,98135.03
2022-11-24T00:24:06.819Z,98139.09
2022-11-24T00:26:37.567Z,98141.22
2022-11-24T00:29:07.996Z,98145.78
2022-11-24T00:31:42.758Z,98146.72
2022-11-24T00:34:26.583Z,98139.75
2022-11-24T00:36:53.801Z,98149.84
2022-11-24T00:39:21.025Z,98152.69
2022-11-24T00:41:48.272Z,98166.84
2022-11-24T00:44:15.776Z,98155.47
2022-11-24T00:46:43.070Z,98167.47
2022-11-24T00:49:10.372Z,98165.34
2022-11-24T00:51:38.715Z,98175.16
2022-11-24T00:54:06.541Z,98180.03
2022-11-24T00:56:34.758Z,98185.84
2022-11-24T00:59:02.058Z,98181.47
2022-11-24T01:01:33.785Z,98188.13
2022-11-24T01:04:02.133Z,98195.56
2022-11-24T01:06:32.325Z,98196.69
2022-11-24T01:09:03.747Z,98204.75
2022-11-24T01:11:54.528Z,98204.03
2022-11-24T01:14:25.216Z,98214.03
2022-11-24T01:16:56.409Z,98208.88
2022-11-24T01:19:24.342Z,98216.03
2022-11-24T01:21:52.305Z,98209.31
2022-11-24T01:24:19.840Z,98215.25
2022-11-24T01:26:47.152Z,98212.78
2022-11-24T01:29:14.617Z,98212.25
2022-11-24T01:31:44.368Z,98222.50
2022-11-24T01:34:12.957Z,98221.84
2022-11-24T01:36:40.315Z,98217.25
2022-11-24T01:39:07.953Z,98219.75
2022-11-24T01:41:36.065Z,98228.38
2022-11-24T01:44:29.867Z,98232.75
2022-11-24T01:47:29.195Z,98228.97
2022-11-24T01:50:00.495Z,98232.59
2022-11-24T01:52:40.013Z,98229.78
2022-11-24T01:55:15.895Z,98228.13
2022-11-24T01:58:05.481Z,98231.31
2022-11-24T02:00:36.554Z,98238.28
2022-11-24T02:03:04.134Z,98241.94
2022-11-24T02:05:58.405Z,98245.28
2022-11-24T02:08:44.156Z,98247.66
2022-11-24T02:11:11.654Z,98247.25
2022-11-24T02:13:42.384Z,98249.44
2022-11-24T02:16:12.588Z,98254.88
2022-11-24T02:18:42.250Z,98261.25
2022-11-24T02:21:13.994Z,98259.94
2022-11-24T02:23:53.552Z,98267.50
2022-11-24T02:26:45.370Z,98267.25
2022-11-24T02:29:15.189Z,98267.88
2022-11-24T02:32:00.580Z,98261.75
2022-11-24T02:34:27.927Z,98275.66
2022-11-24T02:36:55.306Z,98275.22
2022-11-24T02:39:22.604Z,98275.09
2022-11-24T02:42:03.253Z,98267.81
2022-11-24T02:44:39.826Z,98269.97
2022-11-24T02:47:12.255Z,98269.50
2022-11-24T02:49:39.765Z,98265.22
2022-11-24T02:52:07.817Z,98254.88
2022-11-24T02:54:35.345Z,98260.78
2022-11-24T02:57:02.916Z,98268.41
2022-11-24T02:59:30.310Z,98270.81
2022-11-24T03:01:57.805Z,98274.53
2022-11-24T03:04:25.203Z,98266.06
2022-11-24T03:06:52.583Z,98271.69
2022-11-24T03:09:20.867Z,98275.53
2022-11-24T03:11:48.307Z,98275.34
2022-11-24T03:14:15.580Z,98291.06
2022-11-24T03:16:42.785Z,98284.59
2022-11-24T03:19:10.383Z,98285.00
2022-11-24T03:21:37.861Z,98288.84
2022-11-24T03:24:05.993Z,98283.00
2022-11-24T03:26:35.370Z,98297.91
2022-11-24T03:29:02.728Z,98296.69
2022-11-24T03:31:30.141Z,98303.84
2022-11-24T03:33:57.506Z,98308.44
2022-11-24T03:36:24.819Z,98304.41
2022-11-24T03:38:52.353Z,98305.38
2022-11-24T03:41:19.803Z,98309.50
2022-11-24T03:43:47.314Z,98309.44
2022-11-24T03:46:14.718Z,98308.41
2022-11-24T03:48:42.183Z,98318.75
2022-11-24T03:51:11.192Z,98321.00
2022-11-24T03:53:39.923Z,98327.69
2022-11-24T03:56:07.505Z,98326.72
2022-11-24T03:58:34.917Z,98332.59
2022-11-24T04:01:03.587Z,98331.84
2022-11-24T04:03:31.292Z,98332.09
2022-11-24T04:05:58.876Z,98339.97
2022-11-24T04:08:26.205Z,98334.94
2022-11-24T04:10:54.838Z,98334.03
2022-11-24T04:13:25.964Z,98341.28
2022-11-24T04:15:53.756Z,98344.44
2022-11-24T04:18:21.848Z,98334.34
2022-11-24T04:20:52.876Z,98343.09
2022-11-24T04:23:22.146Z,98346.38
2022-11-24T04:25:49.716Z,98342.44
2022-11-24T04:28:16.914Z,98350.88
2022-11-24T04:30:45.164Z,98351.00
2022-11-24T04:33:13.329Z,98358.75
2022-11-24T04:35:40.700Z,98357.38
2022-11-24T04:38:08.103Z,98360.66
2022-11-24T04:40:35.422Z,98357.56
2022-11-24T04:43:02.681Z,98355.50
2022-11-24T04:45:29.929Z,98359.25
2022-11-24T04:47:57.047Z,98356.09
2022-11-24T04:50:24.296Z,98368.28
2022-11-24T04:52:52.451Z,98365.19
2022-11-24T04:55:19.762Z,98361.34
2022-11-24T04:57:46.966Z,98366.94
2022-11-24T05:00:14.998Z,98378.81
2022-11-24T05:02:42.278Z,98377.13
2022-11-24T05:05:09.800Z,98376.38
2022-11-24T05:07:37.036Z,98387.00
2022-11-24T05:10:26.788Z,98385.94
2022-11-24T05:12:56.809Z,98367.50
2022-11-24T05:15:24.232Z,98370.13
2022-11-24T05:17:59.497Z,98370.88
2022-11-24T05:20:26.636Z,98376.16
2022-11-24T05:22:53.761Z,98381.13
2022-11-24T05:25:21.118Z,98382.44
2022-11-24T05:27:48.323Z,98381.13
2022-11-24T05:30:15.563Z,98369.50
2022-11-24T05:32:42.710Z,98386.66
2022-11-24T05:35:09.982Z,98380.28
2022-11-24T05:37:38.173Z,98389.25
2022-11-24T05:40:06.973Z,98395.94
2022-11-24T05:42:46.275Z,98391.53
2022-11-24T05:45:21.674Z,98401.47
2022-11-24T05:47:51.409Z,98404.66
2022-11-24T05:50:22.304Z,98405.94
2022-11-24T05:52:50.185Z,98401.75
2022-11-24T05:55:19.517Z,98403.25
2022-11-24T05:57:47.017Z,98403.84
2022-11-24T06:00:17.953Z,98396.97
2022-11-24T06:02:45.236Z,98399.81
2022-11-24T06:05:12.479Z,98397.38
2022-11-24T06:07:43.892Z,98394.41
2022-11-24T06:10:18.642Z,98394.84
2022-11-24T06:12:46.830Z,98389.81
2022-11-24T06:15:14.607Z,98395.34
2022-11-24T06:17:42.048Z,98393.44
2022-11-24T06:20:11.833Z,98392.50
2022-11-24T06:22:39.191Z,98393.22
2022-11-24T06:25:06.919Z,98396.84
2022-11-24T06:27:34.204Z,98410.00
2022-11-24T06:30:01.371Z,98409.22
2022-11-24T06:32:28.708Z,98406.00
2022-11-24T06:34:56.135Z,98398.34
2022-11-24T06:37:23.341Z,98400.63
2022-11-24T06:39:50.614Z,98402.72
2022-11-24T06:42:21.615Z,98400.72
2022-11-24T06:44:49.033Z,98412.75
2022-11-24T06:47:16.445Z,98417.91
2022-11-24T06:49:43.601Z,98435.00
2022-11-24T06:52:11.244Z,98418.41
2022-11-24T06:54:38.597Z,98428.03
2022-11-24T06:57:05.773Z,98418.72
2022-11-24T06:59:33.011Z,98421.84
2022-11-24T07:02:00.453Z,98426.47
2022-11-24T07:04:27.831Z,98429.34
2022-11-24T07:06:54.992Z,98433.66
2022-11-24T07:09:22.392Z,98438.75
2022-11-24T07:11:55.508Z,98453.34
2022-11-24T07:14:23.182Z,98451.56
2022-11-24T07:16:50.459Z,98458.03
2022-11-24T07:19:23.141Z,98451.66
2022-11-24T07:21:52.365Z,98459.59
2022-11-24T07:24:19.805Z,98464.28
2022-11-24T07:26:47.389Z,98467.28
2022-11-24T07:29:15.049Z,98471.09
2022-11-24T07:31:42.684Z,98473.03
2022-11-24T07:34:10.244Z,98481.25
2022-11-24T07:36:37.527Z,98490.72
2022-11-24T07:39:07.189Z,98501.25
2022-11-24T07:41:34.652Z,98504.38
2022-11-24T07:44:02.163Z,98510.28
2022-11-24T07:46:29.550Z,98508.72
2022-11-24T07:48:56.926Z,98518.22
2022-11-24T07:51:24.510Z,98532.38
2022-11-24T07:53:51.822Z,98523.50
2022-11-24T07:56:19.262Z,98532.16
2022-11-24T07:58:51.393Z,98534.94
2022-11-24T08:01:20.807Z,98546.41
2022-11-24T08:03:48.291Z,98545.00
2022-11-24T08:06:27.291Z,98549.00
2022-11-24T08:09:02.829Z,98546.41
2022-11-24T08:11:31.590Z,98545.22
2022-11-24T08:13:59.037Z,98548.78
2022-11-24T08:16:26.592Z,98552.47
2022-11-24T08:18:58.487Z,98532.91
2022-11-24T08:21:50.943Z,98541.94
2022-11-24T08:24:18.341Z,98539.50
2022-11-24T08:26:45.725Z,98535.06
2022-11-24T08:29:13.145Z,98535.50
2022-11-24T08:31:40.541Z,98544.47
2022-11-24T08:34:07.943Z,98545.81
2022-11-24T08:36:35.207Z,98545.34
2022-11-24T08:39:03.503Z,98552.97
2022-11-24T08:41:33.228Z,98558.31
2022-11-24T08:44:00.752Z,98568.56
2022-11-24T08:46:28.155Z,98566.72
2022-11-24T08:48:55.874Z,98567.03
2022-11-24T08:51:26.904Z,98566.38
2022-11-24T08:54:00.787Z,98569.06
2022-11-24T08:56:34.244Z,98569.72
2022-11-24T08:59:02.513Z,98573.63
2022-11-24T09:01:30.315Z,98573.63
2022-11-24T09:03:58.272Z,98578.56
2022-11-24T09:06:30.938Z,98578.41
2022-11-24T09:09:03.110Z,98580.16
2022-11-24T09:11:33.793Z,98586.22
2022-11-24T09:14:01.262Z,98583.69
2022-11-24T09:16:29.855Z,98579.41
2022-11-24T09:19:08.115Z,98579.69
2022-11-24T09:21:39.107Z,98574.25
2022-11-24T09:24:08.228Z,98581.22
2022-11-24T09:26:43.111Z,98580.81
2022-11-24T09:29:13.735Z,98577.81
2022-11-24T09:31:41.479Z,98588.94
2022-11-24T09:34:15.528Z,98591.34
2022-11-24T09:36:43.342Z,98596.63
2022-11-24T09:39:15.679Z,98600.63
2022-11-24T09:42:15.777Z,98609.28
2022-11-24T09:45:12.466Z,98616.41
2022-11-24T09:48:11.227Z,98622.59
2022-11-24T09:50:39.701Z,98626.66
2022-11-24T09:53:46.446Z,98622.59
2022-11-24T09:56:32.443Z,98630.00
2022-11-24T09:59:16.326Z,98629.84
2022-11-24T10:01:48.281Z,98642.13
2022-11-24T10:04:52.501Z,98637.72
2022-11-24T10:07:31.261Z,98648.50
2022-11-24T10:10:24.269Z,98644.13
2022-11-24T10:14:03.348Z,98647.72
2022-11-24T10:17:23.205Z,98639.50
2022-11-24T10:20:03.605Z,98652.09
2022-11-24T10:23:12.210Z,98647.44
2022-11-24T10:26:00.204Z,98642.06
2022-11-24T10:28:47.780Z,98645.97
2022-11-24T10:31:39.689Z,98649.13
2022-11-24T10:34:35.840Z,98651.56
2022-11-24T10:37:12.594Z,98650.47
2022-11-24T10:40:17.222Z,98661.34
2022-11-24T10:42:58.266Z,98655.84
2022-11-24T10:45:31.667Z,98654.59
2022-11-24T10:47:59.110Z,98665.59
2022-11-24T10:50:47.093Z,98662.06
2022-11-24T10:53:36.074Z,98664.19
2022-11-24T10:56:05.989Z,98662.34
2022-11-24T10:58:38.285Z,98667.84
2022-11-24T11:01:32.736Z,98657.31
2022-11-24T11:04:01.666Z,98650.13
2022-11-24T11:06:31.610Z,98644.53
2022-11-24T11:09:08.763Z,98649.94
2022-11-24T11:11:39.262Z,98648.94
2022-11-24T11:14:11.089Z,98651.91
2022-11-24T11:16:46.075Z,98650.75
2022-11-24T11:19:48.899Z,98653.28
2022-11-24T11:22:33.970Z,98653.47
2022-11-24T11:25:35.967Z,98648.69
2022-11-24T11:28:30.069Z,98642.41
2022-11-24T11:31:16.564Z,98646.47
2022-11-24T11:34:25.006Z,98651.88
2022-11-24T11:36:57.231Z,98656.28
2022-11-24T11:39:30.994Z,98649.94
2022-11-24T11:43:00.748Z,98645.66
2022-11-24T11:45:37.341Z,98652.91
2022-11-24T11:48:04.578Z,98655.91
2022-11-24T11:53:54.948Z,98650.78
2022-11-24T11:59:55.079Z,98660.41
2022-11-24T12:03:11.801Z,98658.41
2022-11-24T12:06:30.447Z,98658.09
2022-11-24T12:09:30.259Z,98670.31
2022-11-24T12:12:51.813Z,98659.16
2022-11-24T12:15:49.325Z,98672.06
2022-11-24T12:18:55.950Z,98665.31
2022-11-24T12:21:41.652Z,98669.78
2022-11-24T12:24:46.265Z,98667.56
2022-11-24T12:27:38.994Z,98666.44
2022-11-24T12:30:17.318Z,98670.06
2022-11-24T12:33:21.682Z,98677.69
2022-11-24T12:36:53.440Z,98673.56
2022-11-24T12:39:36.123Z,98680.16
2022-11-24T12:42:37.159Z,98681.22
2022-11-24T12:45:14.757Z,98686.19
2022-11-24T12:48:22.106Z,98678.94
2022-11-24T12:50:55.334Z,98683.88
2022-11-24T12:53:25.611Z,98676.72
2022-11-24T12:55:54.962Z,98681.19
2022-11-24T12:59:14.960Z,98689.34
2022-11-24T13:02:10.803Z,98688.59
2022-11-24T13:05:23.537Z,98680.53
2022-11-24T13:08:01.857Z,98680.69
2022-11-24T13:10:55.691Z,98679.09
2022-11-24T13:14:02.008Z,98684.75
2022-11-24T13:16:44.507Z,98676.91
2022-11-24T13:19:25.799Z,98668.75
2022-11-24T13:22:25.223Z,98669.16
2022-11-24T13:25:34.501Z,98665.44
2022-11-24T13:28:53.922Z,98674.41
2022-11-24T13:31:23.342Z,98674.31
2022-11-24T13:33:51.228Z,98671.09
2022-11-24T13:36:26.156Z,98680.47
2022-11-24T13:38:59.922Z,98686.91
2022-11-24T13:41:33.964Z,98685.13
2022-11-24T13:44:24.522Z,98692.44
2022-11-24T13:47:41.461Z,98690.75
2022-11-24T13:50:21.424Z,98694.66
2022-11-24T13:53:17.248Z,98693.53
2022-11-24T13:56:10.074Z,98698.88
2022-11-24T13:58:48.981Z,98696.94
2022-11-24T14:01:48.424Z,98696.94
2022-11-24T14:04:30.998Z,98699.16
2022-11-24T14:07:08.984Z,98699.16
2022-11-24T14:10:17.959Z,98701.34
2022-11-24T14:12:45.709Z,98695.72
2022-11-24T14:15:26.254Z,98693.47
2022-11-24T14:17:56.720Z,98690.00
2022-11-24T14:20:37.086Z,98691.41
2022-11-24T14:23:18.653Z,98697.81
2022-11-24T14:25:52.242Z,98693.13
2022-11-24T14:28:51.862Z,98697.25
2022-11-24T14:31:33.837Z,98687.59
2022-11-24T14:34:19.357Z,98686.84
2022-11-24T14:36:52.301Z,98684.06
2022-11-24T14:39:27.662Z,98684.84
2022-11-24T14:42:06.497Z,98695.75
2022-11-24T14:44:55.227Z,98695.50
2022-11-24T14:47:38.575Z,98706.97
2022-11-24T14:50:19.664Z,98701.63
2022-11-24T14:52:57.629Z,98701.94
2022-11-24T14:55:35.597Z,98708.41
2022-11-24T14:58:28.659Z,98719.28
2022-11-24T15:01:28.578Z,98714.81
2022-11-24T15:05:00.782Z,98721.19
2022-11-24T15:07:29.473Z,98729.25
2022-11-24T15:10:02.302Z,98726.19
2022-11-24T15:12:55.845Z,98729.75
2022-11-24T15:15:39.367Z,98725.88
2022-11-24T15:18:35.156Z,98732.28
2022-11-24T15:21:15.584Z,98732.59
2022-11-24T15:24:26.415Z,98739.53
2022-11-24T15:27:02.664Z,98745.31
2022-11-24T15:29:31.780Z,98743.41
2022-11-24T15:32:17.451Z,98742.19
2022-11-24T15:35:27.069Z,98750.38
2022-11-24T15:38:30.367Z,98739.78
2022-11-24T15:41:35.716Z,98742.47
2022-11-24T15:44:03.971Z,98748.91
2022-11-24T15:46:46.586Z,98749.09
2022-11-24T15:49:25.876Z,98741.56
2022-11-24T15:52:00.980Z,98762.59
2022-11-24T15:54:29.750Z,98767.03
2022-11-24T15:57:02.401Z,98761.47
2022-11-24T15:59:31.264Z,98767.25
2022-11-24T16:01:59.187Z,98765.22
2022-11-24T16:04:28.347Z,98761.34
2022-11-24T16:06:56.910Z,98761.97
2022-11-24T16:09:24.996Z,98764.97
2022-11-24T16:11:53.768Z,98754.69
2022-11-24T16:14:22.045Z,98761.47
2022-11-24T16:16:52.934Z,98763.13
2022-11-24T16:19:21.197Z,98759.66
2022-11-24T16:21:49.623Z,98762.41
2022-11-24T16:24:26.081Z,98773.44
2022-11-24T16:27:19.677Z,98776.91
2022-11-24T16:29:47.395Z,98765.22
2022-11-24T16:32:14.705Z,98762.47
2022-11-24T16:34:42.115Z,98773.69
2022-11-24T16:37:10.441Z,98775.13
2022-11-24T16:39:37.992Z,98780.47
2022-11-24T16:42:05.716Z,98770.16
2022-11-24T16:44:34.575Z,98782.75
2022-11-24T16:47:02.234Z,98773.34
2022-11-24T16:49:29.889Z,98775.63
2022-11-24T16:51:57.968Z,98775.13
2022-11-24T16:54:26.005Z,98769.09
2022-11-24T16:56:53.813Z,98779.59
2022-11-24T16:59:21.476Z,98776.34
2022-11-24T17:01:50.679Z,98780.84
2022-11-24T17:04:18.586Z,98775.38
2022-11-24T17:06:48.447Z,98778.03
2022-11-24T17:09:17.279Z,98775.88
2022-11-24T17:11:45.487Z,98777.69
2022-11-24T17:14:16.000Z,98769.97
2022-11-24T17:16:43.479Z,98781.94
2022-11-24T17:19:14.063Z,98777.38
2022-11-24T17:21:41.513Z,98775.66
2022-11-24T17:24:15.052Z,98778.66
2022-11-24T17:26:47.464Z,98775.91
2022-11-24T17:29:16.543Z,98784.41
2022-11-24T17:31:44.267Z,98786.03
2022-11-24T17:34:12.922Z,98791.06
2022-11-24T17:36:41.559Z,98783.16
2022-11-24T17:39:11.127Z,98779.13
2022-11-24T17:41:38.846Z,98789.72
2022-11-24T17:44:10.612Z,98781.13
2022-11-24T17:46:39.123Z,98785.63
2022-11-24T17:49:08.538Z,98787.72
2022-11-24T17:51:36.040Z,98792.25
2022-11-24T17:54:24.695Z,98792.94
2022-11-24T17:56:51.143Z,98787.88
2022-11-24T17:59:18.836Z,98793.81
2022-11-24T18:01:46.472Z,98788.81
2022-11-24T18:04:13.874Z,98789.50
2022-11-24T18:06:41.312Z,98788.94
2022-11-24T18:09:08.970Z,98790.31
2022-11-24T18:11:37.071Z,98790.03
2022-11-24T18:14:07.611Z,98796.16
2022-11-24T18:17:11.466Z,98802.47
2022-11-24T18:19:59.371Z,98799.41
2022-11-24T18:22:50.179Z,98806.13
2022-11-24T18:25:14.572Z,98805.56
2022-11-24T18:27:41.897Z,98806.34
2022-11-24T18:30:10.210Z,98798.50
2022-11-24T18:33:03.670Z,98799.81
2022-11-24T18:35:31.092Z,98805.25
2022-11-24T18:37:58.504Z,98799.47
2022-11-24T18:40:25.998Z,98795.97
2022-11-24T18:42:53.698Z,98781.22
2022-11-24T18:45:21.257Z,98784.31
2022-11-24T18:47:48.570Z,98791.44
2022-11-24T18:50:17.538Z,98789.59
2022-11-24T18:52:45.009Z,98788.69
2022-11-24T18:55:15.670Z,98782.06
2022-11-24T18:57:50.632Z,98775.50
2022-11-24T19:00:18.348Z,98786.22
2022-11-24T19:02:51.022Z,98787.06
2022-11-24T19:05:20.067Z,98795.44
2022-11-24T19:07:47.777Z,98797.47
2022-11-24T19:10:16.022Z,98798.03
2022-11-24T19:12:45.135Z,98791.66
2022-11-24T19:15:13.009Z,98791.91
2022-11-24T19:17:40.653Z,98798.13
2022-11-24T19:20:08.660Z,98790.34
2022-11-24T19:22:36.236Z,98784.69
2022-11-24T19:25:04.416Z,98784.34
2022-11-24T19:27:34.467Z,98788.81
2022-11-24T19:30:02.483Z,98801.59
2022-11-24T19:32:32.642Z,98786.47
2022-11-24T19:35:00.923Z,98794.41
2022-11-24T19:37:32.514Z,98798.38
2022-11-24T19:40:01.224Z,98788.63
2022-11-24T19:42:29.242Z,98792.03
2022-11-24T19:44:57.042Z,98794.13
2022-11-24T19:47:24.554Z,98794.75
2022-11-24T19:49:51.950Z,98791.44
2022-11-24T19:52:19.816Z,98788.94
2022-11-24T19:54:47.439Z,98787.09
2022-11-24T19:57:15.206Z,98794.53
2022-11-24T19:59:43.479Z,98788.97
2022-11-24T20:02:13.830Z,98791.88
2022-11-24T20:04:43.038Z,98776.09
2022-11-24T20:07:12.667Z,98781.97
2022-11-24T20:09:40.400Z,98778.59
2022-11-24T20:12:09.829Z,98774.63
2022-11-24T20:14:37.550Z,98781.38
2022-11-24T20:17:06.695Z,98776.84
2022-11-24T20:19:34.336Z,98773.28
2022-11-24T20:22:02.205Z,98782.72
2022-11-24T20:24:29.531Z,98773.38
2022-11-24T20:27:01.308Z,98780.81
2022-11-24T20:29:29.196Z,98785.28
2022-11-24T20:31:57.342Z,98787.78
2022-11-24T20:34:26.333Z,98794.16
2022-11-24T20:36:56.299Z,98792.00
2022-11-24T20:39:27.788Z,98792.41
2022-11-24T20:41:56.412Z,98793.28
2022-11-24T20:44:26.570Z,98792.22
2022-11-24T20:46:58.061Z,98783.97
2022-11-24T20:49:28.235Z,98785.09
2022-11-24T20:51:57.090Z,98784.03
2022-11-24T20:54:24.646Z,98777.03
2022-11-24T20:56:52.100Z,98781.66
2022-11-24T20:59:23.466Z,98782.34
2022-11-24T21:01:55.204Z,98775.09
2022-11-24T21:04:28.092Z,98783.75
2022-11-24T21:06:57.885Z,98783.34
2022-11-24T21:09:27.088Z,98779.13
2022-11-24T21:11:54.636Z,98772.53
2022-11-24T21:14:21.798Z,98780.13
2022-11-24T21:16:50.174Z,98773.59
2022-11-24T21:19:18.695Z,98771.28
2022-11-24T21:21:47.674Z,98768.91
2022-11-24T21:24:21.673Z,98771.91
2022-11-24T21:26:51.646Z,98763.47
2022-11-24T21:29:22.317Z,98771.09
2022-11-24T21:31:49.989Z,98762.00
2022-11-24T21:34:19.166Z,98764.50
2022-11-24T21:36:47.398Z,98759.44
2022-11-24T21:39:15.752Z,98760.50
2022-11-24T21:41:44.031Z,98763.91
2022-11-24T21:44:13.671Z,98775.31
2022-11-24T21:46:46.099Z,98771.94
2022-11-24T21:49:16.814Z,98772.25
2022-11-24T21:51:44.063Z,98773.34
2022-11-24T21:54:11.351Z,98768.97
2022-11-24T21:56:38.446Z,98774.47
2022-11-24T21:59:05.795Z,98765.81
2022-11-24T22:01:33.040Z,98771.31
2022-11-24T22:04:00.328Z,98765.38
2022-11-24T22:06:27.570Z,98772.97
2022-11-24T22:11:52.546Z,98775.50
2022-11-24T22:14:19.735Z,98770.22
2022-11-24T22:16:47.381Z,98769.78
2022-11-24T22:19:14.751Z,98769.56
2022-11-24T22:21:42.018Z,98760.34
2022-11-24T22:24:09.397Z,98762.44
2022-11-24T22:26:36.825Z,98768.50
2022-11-24T22:29:04.411Z,98766.09
2022-11-24T22:31:34.339Z,98767.97
2022-11-24T22:34:01.807Z,98774.16
2022-11-24T22:36:30.947Z,98773.31
2022-11-24T22:39:05.592Z,98763.88
2022-11-24T22:41:35.586Z,98774.94
2022-11-24T22:44:04.089Z,98777.50
2022-11-24T22:46:32.833Z,98782.25
2022-11-24T22:49:01.902Z,98770.75
2022-11-24T22:51:34.520Z,98773.63
2022-11-24T22:54:05.041Z,98784.28
2022-11-24T22:56:34.015Z,98788.16
2022-11-24T22:59:19.583Z,98790.59
2022-11-24T23:01:46.755Z,98783.00
2022-11-24T23:04:14.089Z,98790.44
2022-11-24T23:06:41.309Z,98792.34
2022-11-24T23:09:12.240Z,98804.47
2022-11-24T23:11:41.140Z,98796.75
2022-11-24T23:14:15.576Z,98796.28
2022-11-24T23:16:43.751Z,98795.69
2022-11-24T23:19:11.279Z,98797.44
2022-11-24T23:21:39.473Z,98799.13
2022-11-24T23:24:08.719Z,98793.97
2022-11-24T23:26:40.766Z,98802.56
2022-11-24T23:29:10.075Z,98797.53
2022-11-24T23:31:40.044Z,98796.50
2022-11-24T23:34:07.815Z,98793.34
2022-11-24T23:36:35.026Z,98796.25
2022-11-24T23:39:11.145Z,98792.69
2022-11-24T23:41:38.428Z,98786.41
2022-11-24T23:44:06.625Z,98790.91
2022-11-24T23:46:34.174Z,98793.50
2022-11-24T23:49:01.360Z,98799.63
2022-11-24T23:51:32.470Z,98792.22
2022-11-24T23:54:01.165Z,98785.28
2022-11-24T23:56:33.112Z,98796.31
2022-11-24T23:59:03.626Z,98797.69
